sensor_id;sensor_type;location;lat;lon;timestamp;pressure;altitude;pressure_sealevel;temperature;humidity
68822;BME280;55834;50.870;4.606;2023-02-13T00:00:39;102930.72;;;4.43;57.29
68822;BME280;55834;50.870;4.606;2023-02-13T00:03:05;102928.47;;;4.53;55.52
68822;BME280;55834;50.870;4.606;2023-02-13T00:05:30;102931.50;;;4.40;54.64
68822;BME280;55834;50.870;4.606;2023-02-13T00:07:55;102935.72;;;4.35;55.84
68822;BME280;55834;50.870;4.606;2023-02-13T00:10:21;102932.06;;;4.03;56.16
68822;BME280;55834;50.870;4.606;2023-02-13T00:12:46;102931.19;;;3.78;57.96
68822;BME280;55834;50.870;4.606;2023-02-13T00:15:12;102932.56;;;3.93;58.55
68822;BME280;55834;50.870;4.606;2023-02-13T00:17:37;102936.69;;;4.12;57.47
68822;BME280;55834;50.870;4.606;2023-02-13T00:20:03;102934.22;;;3.91;57.64
68822;BME280;55834;50.870;4.606;2023-02-13T00:22:34;102933.66;;;3.99;57.66
68822;BME280;55834;50.870;4.606;2023-02-13T00:24:59;102930.91;;;4.22;57.63
68822;BME280;55834;50.870;4.606;2023-02-13T00:27:25;102933.22;;;4.38;56.82
68822;BME280;55834;50.870;4.606;2023-02-13T00:29:50;102930.69;;;4.41;55.08
68822;BME280;55834;50.870;4.606;2023-02-13T00:32:16;102920.44;;;4.20;54.36
68822;BME280;55834;50.870;4.606;2023-02-13T00:34:41;102922.78;;;4.13;56.55
68822;BME280;55834;50.870;4.606;2023-02-13T00:37:08;102917.66;;;4.16;56.43
68822;BME280;55834;50.870;4.606;2023-02-13T00:39:33;102915.31;;;4.25;55.01
68822;BME280;55834;50.870;4.606;2023-02-13T00:41:59;102925.19;;;4.34;55.02
68822;BME280;55834;50.870;4.606;2023-02-13T00:44:24;102924.75;;;4.20;54.78
68822;BME280;55834;50.870;4.606;2023-02-13T00:46:49;102929.19;;;4.22;56.56
68822;BME280;55834;50.870;4.606;2023-02-13T00:49:14;102928.50;;;4.28;55.83
68822;BME280;55834;50.870;4.606;2023-02-13T00:51:40;102925.25;;;4.35;55.34
68822;BME280;55834;50.870;4.606;2023-02-13T00:54:05;102929.63;;;4.35;54.60
68822;BME280;55834;50.870;4.606;2023-02-13T00:56:30;102927.00;;;4.35;54.58
68822;BME280;55834;50.870;4.606;2023-02-13T00:58:56;102927.03;;;4.36;54.62
68822;BME280;55834;50.870;4.606;2023-02-13T01:01:21;102931.31;;;4.34;53.01
68822;BME280;55834;50.870;4.606;2023-02-13T01:03:46;102928.56;;;4.29;53.82
68822;BME280;55834;50.870;4.606;2023-02-13T01:06:12;102927.22;;;3.90;54.18
68822;BME280;55834;50.870;4.606;2023-02-13T01:08:38;102925.94;;;3.77;55.66
68822;BME280;55834;50.870;4.606;2023-02-13T01:11:04;102928.22;;;3.93;56.67
68822;BME280;55834;50.870;4.606;2023-02-13T01:13:30;102925.88;;;4.01;55.09
68822;BME280;55834;50.870;4.606;2023-02-13T01:15:55;102921.31;;;3.95;54.36
68822;BME280;55834;50.870;4.606;2023-02-13T01:18:20;102926.13;;;3.83;54.91
68822;BME280;55834;50.870;4.606;2023-02-13T01:20:58;102923.91;;;3.70;56.35
68822;BME280;55834;50.870;4.606;2023-02-13T01:23:24;102920.34;;;3.68;56.07
68822;BME280;55834;50.870;4.606;2023-02-13T01:25:49;102925.13;;;3.79;56.28
68822;BME280;55834;50.870;4.606;2023-02-13T01:28:16;102921.03;;;3.88;55.86
68822;BME280;55834;50.870;4.606;2023-02-13T01:30:41;102918.22;;;3.81;54.17
68822;BME280;55834;50.870;4.606;2023-02-13T01:33:09;102918.69;;;3.70;55.36
68822;BME280;55834;50.870;4.606;2023-02-13T01:35:38;102924.03;;;3.73;55.39
68822;BME280;55834;50.870;4.606;2023-02-13T01:38:03;102925.25;;;3.58;56.21
68822;BME280;55834;50.870;4.606;2023-02-13T01:40:28;102926.88;;;3.55;56.72
68822;BME280;55834;50.870;4.606;2023-02-13T01:42:54;102922.16;;;3.21;57.08
68822;BME280;55834;50.870;4.606;2023-02-13T01:47:59;102936.38;;;3.53;57.55
68822;BME280;55834;50.870;4.606;2023-02-13T01:50:31;102935.31;;;3.72;56.46
68822;BME280;55834;50.870;4.606;2023-02-13T01:53:04;102927.59;;;3.75;55.36
68822;BME280;55834;50.870;4.606;2023-02-13T01:55:34;102926.25;;;3.62;53.81
68822;BME280;55834;50.870;4.606;2023-02-13T01:58:08;102932.13;;;3.56;53.76
68822;BME280;55834;50.870;4.606;2023-02-13T02:00:37;102931.00;;;3.48;54.08
68822;BME280;55834;50.870;4.606;2023-02-13T02:03:09;102923.50;;;3.57;54.60
68822;BME280;55834;50.870;4.606;2023-02-13T02:05:35;102924.44;;;3.59;53.57
68822;BME280;55834;50.870;4.606;2023-02-13T02:08:04;102922.53;;;3.55;53.33
68822;BME280;55834;50.870;4.606;2023-02-13T02:10:32;102916.44;;;3.55;53.07
68822;BME280;55834;50.870;4.606;2023-02-13T02:13:13;102923.00;;;3.44;51.81
68822;BME280;55834;50.870;4.606;2023-02-13T02:15:40;102915.59;;;3.32;52.38
68822;BME280;55834;50.870;4.606;2023-02-13T02:18:14;102918.50;;;3.39;53.69
68822;BME280;55834;50.870;4.606;2023-02-13T02:23:57;102917.47;;;3.36;53.01
68822;BME280;55834;50.870;4.606;2023-02-13T02:32:46;102905.81;;;3.26;53.07
68822;BME280;55834;50.870;4.606;2023-02-13T02:35:28;102903.41;;;3.31;53.89
68822;BME280;55834;50.870;4.606;2023-02-13T02:38:20;102897.81;;;3.22;54.03
68822;BME280;55834;50.870;4.606;2023-02-13T02:41:10;102894.78;;;3.11;53.74
68822;BME280;55834;50.870;4.606;2023-02-13T02:44:10;102893.84;;;3.09;54.52
68822;BME280;55834;50.870;4.606;2023-02-13T02:46:43;102891.44;;;3.15;55.46
68822;BME280;55834;50.870;4.606;2023-02-13T02:49:35;102893.66;;;3.27;55.27
68822;BME280;55834;50.870;4.606;2023-02-13T02:52:30;102894.78;;;3.33;54.44
68822;BME280;55834;50.870;4.606;2023-02-13T02:55:09;102903.53;;;3.35;54.44
68822;BME280;55834;50.870;4.606;2023-02-13T02:57:44;102900.16;;;3.38;54.92
68822;BME280;55834;50.870;4.606;2023-02-13T03:00:34;102901.31;;;3.46;54.71
68822;BME280;55834;50.870;4.606;2023-02-13T03:03:22;102899.59;;;3.47;53.98
68822;BME280;55834;50.870;4.606;2023-02-13T03:06:37;102907.28;;;3.42;54.07
68822;BME280;55834;50.870;4.606;2023-02-13T03:09:08;102900.91;;;3.34;53.86
68822;BME280;55834;50.870;4.606;2023-02-13T03:11:55;102904.97;;;3.27;53.44
68822;BME280;55834;50.870;4.606;2023-02-13T03:14:39;102909.81;;;3.16;53.59
68822;BME280;55834;50.870;4.606;2023-02-13T03:17:10;102915.03;;;3.16;54.47
68822;BME280;55834;50.870;4.606;2023-02-13T03:25:42;102908.06;;;2.93;55.76
68822;BME280;55834;50.870;4.606;2023-02-13T03:28:39;102911.19;;;2.84;54.87
68822;BME280;55834;50.870;4.606;2023-02-13T03:34:06;102912.44;;;2.94;55.54
68822;BME280;55834;50.870;4.606;2023-02-13T03:36:58;102907.50;;;3.02;55.44
68822;BME280;55834;50.870;4.606;2023-02-13T03:45:03;102892.78;;;3.04;54.56
68822;BME280;55834;50.870;4.606;2023-02-13T03:47:52;102890.16;;;3.04;54.12
68822;BME280;55834;50.870;4.606;2023-02-13T03:50:19;102889.16;;;3.00;53.17
68822;BME280;55834;50.870;4.606;2023-02-13T03:58:03;102892.13;;;2.87;53.13
68822;BME280;55834;50.870;4.606;2023-02-13T04:00:51;102892.16;;;2.64;54.46
68822;BME280;55834;50.870;4.606;2023-02-13T04:06:09;102897.47;;;2.45;55.61
68822;BME280;55834;50.870;4.606;2023-02-13T04:08:35;102900.44;;;2.54;55.32
68822;BME280;55834;50.870;4.606;2023-02-13T04:14:06;102899.38;;;2.71;54.44
68822;BME280;55834;50.870;4.606;2023-02-13T04:19:04;102910.66;;;2.70;52.90
68822;BME280;55834;50.870;4.606;2023-02-13T04:21:34;102906.91;;;2.64;53.50
68822;BME280;55834;50.870;4.606;2023-02-13T04:24:01;102906.53;;;2.55;52.88
68822;BME280;55834;50.870;4.606;2023-02-13T04:26:34;102905.09;;;2.61;54.07
68822;BME280;55834;50.870;4.606;2023-02-13T04:29:00;102904.50;;;2.68;53.96
68822;BME280;55834;50.870;4.606;2023-02-13T04:31:25;102903.75;;;2.72;53.21
68822;BME280;55834;50.870;4.606;2023-02-13T04:33:51;102902.22;;;2.78;53.17
68822;BME280;55834;50.870;4.606;2023-02-13T04:36:16;102895.28;;;2.78;52.80
68822;BME280;55834;50.870;4.606;2023-02-13T04:38:41;102904.78;;;2.76;52.88
68822;BME280;55834;50.870;4.606;2023-02-13T04:41:07;102901.03;;;2.69;52.85
68822;BME280;55834;50.870;4.606;2023-02-13T04:43:32;102905.31;;;2.67;53.48
68822;BME280;55834;50.870;4.606;2023-02-13T04:45:57;102906.22;;;2.68;52.49
68822;BME280;55834;50.870;4.606;2023-02-13T04:48:23;102909.69;;;2.68;52.68
68822;BME280;55834;50.870;4.606;2023-02-13T04:50:48;102910.59;;;2.69;52.47
68822;BME280;55834;50.870;4.606;2023-02-13T04:53:13;102905.31;;;2.67;52.92
68822;BME280;55834;50.870;4.606;2023-02-13T04:55:39;102905.38;;;2.69;53.03
68822;BME280;55834;50.870;4.606;2023-02-13T04:58:04;102907.94;;;2.67;52.56
68822;BME280;55834;50.870;4.606;2023-02-13T05:00:29;102904.50;;;2.68;52.53
68822;BME280;55834;50.870;4.606;2023-02-13T05:03:03;102906.91;;;2.64;51.81
68822;BME280;55834;50.870;4.606;2023-02-13T05:05:28;102904.69;;;2.52;52.14
68822;BME280;55834;50.870;4.606;2023-02-13T05:07:54;102902.53;;;1.98;52.05
68822;BME280;55834;50.870;4.606;2023-02-13T05:10:19;102904.03;;;1.72;53.11
68822;BME280;55834;50.870;4.606;2023-02-13T05:12:44;102908.66;;;1.58;54.67
68822;BME280;55834;50.870;4.606;2023-02-13T05:15:10;102897.59;;;1.84;55.71
68822;BME280;55834;50.870;4.606;2023-02-13T05:17:35;102896.88;;;1.88;54.58
68822;BME280;55834;50.870;4.606;2023-02-13T05:20:00;102901.56;;;1.96;54.78
68822;BME280;55834;50.870;4.606;2023-02-13T05:22:26;102898.41;;;2.03;53.92
68822;BME280;55834;50.870;4.606;2023-02-13T05:25:10;102909.13;;;2.11;53.68
68822;BME280;55834;50.870;4.606;2023-02-13T05:27:35;102902.16;;;2.10;53.10
68822;BME280;55834;50.870;4.606;2023-02-13T05:30:00;102909.13;;;2.11;52.35
68822;BME280;55834;50.870;4.606;2023-02-13T05:32:26;102909.84;;;2.07;52.84
68822;BME280;55834;50.870;4.606;2023-02-13T05:34:51;102902.91;;;2.08;53.34
68822;BME280;55834;50.870;4.606;2023-02-13T05:37:16;102903.75;;;2.07;52.34
68822;BME280;55834;50.870;4.606;2023-02-13T05:39:41;102912.34;;;2.04;52.77
68822;BME280;55834;50.870;4.606;2023-02-13T05:42:08;102916.97;;;2.11;53.16
68822;BME280;55834;50.870;4.606;2023-02-13T05:44:34;102916.91;;;2.10;52.65
68822;BME280;55834;50.870;4.606;2023-02-13T05:47:00;102911.75;;;1.90;52.19
68822;BME280;55834;50.870;4.606;2023-02-13T05:49:25;102912.38;;;1.85;53.44
68822;BME280;55834;50.870;4.606;2023-02-13T05:51:51;102916.88;;;1.89;53.73
68822;BME280;55834;50.870;4.606;2023-02-13T05:54:17;102921.16;;;1.87;53.82
68822;BME280;55834;50.870;4.606;2023-02-13T05:56:43;102920.31;;;1.88;53.40
68822;BME280;55834;50.870;4.606;2023-02-13T05:59:08;102926.38;;;1.87;52.92
68822;BME280;55834;50.870;4.606;2023-02-13T06:01:34;102918.22;;;1.79;53.38
68822;BME280;55834;50.870;4.606;2023-02-13T06:03:59;102920.34;;;1.68;52.54
68822;BME280;55834;50.870;4.606;2023-02-13T06:06:24;102927.41;;;1.71;54.28
68822;BME280;55834;50.870;4.606;2023-02-13T06:08:50;102925.84;;;1.74;53.52
68822;BME280;55834;50.870;4.606;2023-02-13T06:11:16;102923.53;;;1.61;53.08
68822;BME280;55834;50.870;4.606;2023-02-13T06:13:41;102913.38;;;1.67;53.23
68822;BME280;55834;50.870;4.606;2023-02-13T06:16:08;102929.13;;;1.70;52.73
68822;BME280;55834;50.870;4.606;2023-02-13T06:18:33;102924.94;;;1.74;53.49
68822;BME280;55834;50.870;4.606;2023-02-13T06:20:59;102918.97;;;1.76;52.67
68822;BME280;55834;50.870;4.606;2023-02-13T06:23:25;102923.25;;;1.74;52.86
68822;BME280;55834;50.870;4.606;2023-02-13T06:25:50;102922.41;;;1.75;52.54
68822;BME280;55834;50.870;4.606;2023-02-13T06:28:15;102914.59;;;1.75;52.81
68822;BME280;55834;50.870;4.606;2023-02-13T06:30:41;102921.38;;;1.72;52.11
68822;BME280;55834;50.870;4.606;2023-02-13T06:33:06;102921.44;;;1.54;51.56
68822;BME280;55834;50.870;4.606;2023-02-13T06:35:31;102922.72;;;1.43;52.80
68822;BME280;55834;50.870;4.606;2023-02-13T06:37:57;102924.88;;;1.33;52.70
68822;BME280;55834;50.870;4.606;2023-02-13T06:40:22;102922.28;;;1.33;52.68
68822;BME280;55834;50.870;4.606;2023-02-13T06:42:47;102923.53;;;1.42;52.66
68822;BME280;55834;50.870;4.606;2023-02-13T06:45:13;102925.59;;;1.49;52.96
68822;BME280;55834;50.870;4.606;2023-02-13T06:47:42;102913.59;;;1.52;52.30
68822;BME280;55834;50.870;4.606;2023-02-13T06:50:09;102917.03;;;1.51;52.46
68822;BME280;55834;50.870;4.606;2023-02-13T06:52:35;102925.72;;;1.52;52.54
68822;BME280;55834;50.870;4.606;2023-02-13T06:55:01;102925.59;;;1.49;51.97
68822;BME280;55834;50.870;4.606;2023-02-13T06:57:26;102925.59;;;1.49;52.54
68822;BME280;55834;50.870;4.606;2023-02-13T06:59:51;102923.66;;;1.45;52.06
68822;BME280;55834;50.870;4.606;2023-02-13T07:02:17;102925.31;;;1.43;52.49
68822;BME280;55834;50.870;4.606;2023-02-13T07:04:42;102924.50;;;1.44;52.55
68822;BME280;55834;50.870;4.606;2023-02-13T07:07:08;102931.28;;;1.40;51.82
68822;BME280;55834;50.870;4.606;2023-02-13T07:09:33;102928.41;;;1.34;51.59
68822;BME280;55834;50.870;4.606;2023-02-13T07:12:02;102927.03;;;1.23;51.86
68822;BME280;55834;50.870;4.606;2023-02-13T07:14:28;102921.09;;;1.25;53.02
68822;BME280;55834;50.870;4.606;2023-02-13T07:16:53;102931.88;;;1.15;52.31
68822;BME280;55834;50.870;4.606;2023-02-13T07:19:18;102933.97;;;1.22;53.39
68822;BME280;55834;50.870;4.606;2023-02-13T07:21:44;102928.94;;;1.27;52.51
68822;BME280;55834;50.870;4.606;2023-02-13T07:24:09;102928.28;;;1.31;52.41
68822;BME280;55834;50.870;4.606;2023-02-13T07:26:34;102935.25;;;1.32;53.01
68822;BME280;55834;50.870;4.606;2023-02-13T07:29:00;102931.41;;;1.24;52.25
68822;BME280;55834;50.870;4.606;2023-02-13T07:31:32;102938.34;;;1.23;52.93
68822;BME280;55834;50.870;4.606;2023-02-13T07:33:57;102936.56;;;1.22;53.39
68822;BME280;55834;50.870;4.606;2023-02-13T07:36:22;102944.16;;;1.18;53.84
68822;BME280;55834;50.870;4.606;2023-02-13T07:38:48;102940.72;;;1.19;54.50
68822;BME280;55834;50.870;4.606;2023-02-13T07:41:13;102935.59;;;1.20;54.94
68822;BME280;55834;50.870;4.606;2023-02-13T07:43:38;102943.03;;;1.12;54.22
68822;BME280;55834;50.870;4.606;2023-02-13T07:46:04;102939.63;;;1.33;55.73
68822;BME280;55834;50.870;4.606;2023-02-13T07:48:30;102931.81;;;1.52;55.43
68822;BME280;55834;50.870;4.606;2023-02-13T07:51:00;102930.22;;;1.75;55.05
68822;BME280;55834;50.870;4.606;2023-02-13T07:53:25;102936.19;;;1.94;54.38
68822;BME280;55834;50.870;4.606;2023-02-13T07:55:51;102933.44;;;2.10;54.01
68822;BME280;55834;50.870;4.606;2023-02-13T07:58:16;102935.97;;;2.09;53.25
68822;BME280;55834;50.870;4.606;2023-02-13T08:00:41;102942.59;;;2.21;54.56
68822;BME280;55834;50.870;4.606;2023-02-13T08:03:06;102935.78;;;2.25;54.16
68822;BME280;55834;50.870;4.606;2023-02-13T08:05:32;102935.25;;;2.34;54.18
68822;BME280;55834;50.870;4.606;2023-02-13T08:07:58;102944.66;;;2.51;54.28
68822;BME280;55834;50.870;4.606;2023-02-13T08:10:23;102940.09;;;2.45;53.58
68822;BME280;55834;50.870;4.606;2023-02-13T08:13:08;102939.97;;;2.42;54.61
68822;BME280;55834;50.870;4.606;2023-02-13T08:15:35;102937.50;;;2.68;54.81
68822;BME280;55834;50.870;4.606;2023-02-13T08:18:01;102938.41;;;2.91;54.89
68822;BME280;55834;50.870;4.606;2023-02-13T08:20:26;102940.06;;;2.89;53.50
68822;BME280;55834;50.870;4.606;2023-02-13T08:22:53;102941.25;;;2.97;53.90
68822;BME280;55834;50.870;4.606;2023-02-13T08:25:18;102947.31;;;2.96;54.00
68822;BME280;55834;50.870;4.606;2023-02-13T08:27:44;102949.72;;;2.91;54.21
68822;BME280;55834;50.870;4.606;2023-02-13T08:30:10;102935.53;;;3.07;55.18
68822;BME280;55834;50.870;4.606;2023-02-13T08:32:36;102938.53;;;2.94;55.36
68822;BME280;55834;50.870;4.606;2023-02-13T08:35:01;102943.81;;;2.73;56.68
68822;BME280;55834;50.870;4.606;2023-02-13T08:37:26;102946.81;;;2.61;57.90
68822;BME280;55834;50.870;4.606;2023-02-13T08:39:52;102945.75;;;2.79;57.42
68822;BME280;55834;50.870;4.606;2023-02-13T08:42:17;102946.34;;;2.94;57.50
68822;BME280;55834;50.870;4.606;2023-02-13T08:44:43;102942.88;;;3.17;58.00
68822;BME280;55834;50.870;4.606;2023-02-13T08:47:08;102945.72;;;3.46;58.09
68822;BME280;55834;50.870;4.606;2023-02-13T08:49:34;102942.22;;;3.46;56.03
68822;BME280;55834;50.870;4.606;2023-02-13T08:52:00;102931.59;;;3.65;56.87
68822;BME280;55834;50.870;4.606;2023-02-13T08:54:26;102938.03;;;3.75;55.58
68822;BME280;55834;50.870;4.606;2023-02-13T08:56:52;102943.50;;;3.82;56.53
68822;BME280;55834;50.870;4.606;2023-02-13T08:59:18;102943.97;;;3.95;56.51
68822;BME280;55834;50.870;4.606;2023-02-13T09:01:43;102943.31;;;3.76;56.01
68822;BME280;55834;50.870;4.606;2023-02-13T09:04:08;102945.31;;;3.83;58.27
68822;BME280;55834;50.870;4.606;2023-02-13T09:06:34;102941.63;;;4.29;58.35
68822;BME280;55834;50.870;4.606;2023-02-13T09:08:59;102937.28;;;4.57;57.07
68822;BME280;55834;50.870;4.606;2023-02-13T09:11:25;102938.94;;;4.82;56.55
68822;BME280;55834;50.870;4.606;2023-02-13T09:13:53;102936.97;;;5.04;55.74
68822;BME280;55834;50.870;4.606;2023-02-13T09:16:19;102941.00;;;5.21;55.24
68822;BME280;55834;50.870;4.606;2023-02-13T09:18:49;102937.84;;;5.33;54.80
68822;BME280;55834;50.870;4.606;2023-02-13T09:21:16;102942.88;;;5.25;55.34
68822;BME280;55834;50.870;4.606;2023-02-13T09:23:42;102946.28;;;5.23;55.72
68822;BME280;55834;50.870;4.606;2023-02-13T09:26:09;102947.84;;;5.46;55.98
68822;BME280;55834;50.870;4.606;2023-02-13T09:28:36;102944.84;;;5.64;55.24
68822;BME280;55834;50.870;4.606;2023-02-13T09:31:08;102945.78;;;5.68;55.30
68822;BME280;55834;50.870;4.606;2023-02-13T09:33:35;102946.91;;;5.76;55.36
68822;BME280;55834;50.870;4.606;2023-02-13T09:36:09;102936.94;;;5.96;55.52
68822;BME280;55834;50.870;4.606;2023-02-13T09:38:35;102941.75;;;6.12;55.02
68822;BME280;55834;50.870;4.606;2023-02-13T09:41:24;102940.78;;;6.08;54.92
68822;BME280;55834;50.870;4.606;2023-02-13T09:44:16;102947.25;;;5.88;54.57
68822;BME280;55834;50.870;4.606;2023-02-13T09:49:50;102951.19;;;5.72;55.70
68822;BME280;55834;50.870;4.606;2023-02-13T09:52:18;102953.41;;;5.58;57.85
68822;BME280;55834;50.870;4.606;2023-02-13T09:54:44;102952.44;;;5.55;57.43
68822;BME280;55834;50.870;4.606;2023-02-13T09:57:24;102951.19;;;5.72;57.70
68822;BME280;55834;50.870;4.606;2023-02-13T10:00:02;102947.34;;;5.59;57.16
68822;BME280;55834;50.870;4.606;2023-02-13T10:08:33;102949.78;;;6.54;55.98
68822;BME280;55834;50.870;4.606;2023-02-13T10:14:16;102944.56;;;6.94;54.24
68822;BME280;55834;50.870;4.606;2023-02-13T10:16:52;102936.13;;;7.09;54.39
68822;BME280;55834;50.870;4.606;2023-02-13T10:19:46;102937.94;;;7.10;54.65
68822;BME280;55834;50.870;4.606;2023-02-13T10:27:21;102940.63;;;7.58;53.52
68822;BME280;55834;50.870;4.606;2023-02-13T10:29:52;102934.91;;;7.35;52.63
68822;BME280;55834;50.870;4.606;2023-02-13T10:36:06;102936.88;;;7.01;52.97
68822;BME280;55834;50.870;4.606;2023-02-13T10:47:06;102935.28;;;8.01;52.48
68822;BME280;55834;50.870;4.606;2023-02-13T10:49:45;102928.31;;;8.04;52.85
68822;BME280;55834;50.870;4.606;2023-02-13T10:55:43;102924.13;;;8.12;52.66
68822;BME280;55834;50.870;4.606;2023-02-13T10:58:18;102918.69;;;8.05;51.61
68822;BME280;55834;50.870;4.606;2023-02-13T11:00:54;102922.25;;;8.07;52.21
68822;BME280;55834;50.870;4.606;2023-02-13T11:03:22;102919.00;;;8.20;52.03
68822;BME280;55834;50.870;4.606;2023-02-13T11:05:49;102914.50;;;8.14;53.02
68822;BME280;55834;50.870;4.606;2023-02-13T11:08:33;102911.06;;;8.19;51.42
68822;BME280;55834;50.870;4.606;2023-02-13T11:11:00;102905.44;;;8.52;51.45
68822;BME280;55834;50.870;4.606;2023-02-13T11:13:27;102905.69;;;8.69;50.92
68822;BME280;55834;50.870;4.606;2023-02-13T11:16:03;102906.81;;;8.86;50.82
68822;BME280;55834;50.870;4.606;2023-02-13T11:18:34;102893.75;;;8.97;50.26
68822;BME280;55834;50.870;4.606;2023-02-13T11:21:20;102900.38;;;8.67;51.13
68822;BME280;55834;50.870;4.606;2023-02-13T11:23:52;102900.63;;;8.84;50.69
68822;BME280;55834;50.870;4.606;2023-02-13T11:26:31;102894.88;;;8.50;51.40
68822;BME280;55834;50.870;4.606;2023-02-13T11:29:30;102892.69;;;8.22;51.63
68822;BME280;55834;50.870;4.606;2023-02-13T11:32:26;102887.47;;;8.23;51.85
68822;BME280;55834;50.870;4.606;2023-02-13T11:34:52;102890.34;;;8.42;52.34
68822;BME280;55834;50.870;4.606;2023-02-13T11:37:27;102885.50;;;8.71;51.37
68822;BME280;55834;50.870;4.606;2023-02-13T11:39:58;102886.38;;;8.71;50.13
68822;BME280;55834;50.870;4.606;2023-02-13T11:42:27;102886.78;;;9.00;50.16
68822;BME280;55834;50.870;4.606;2023-02-13T11:44:58;102885.34;;;9.27;49.32
68822;BME280;55834;50.870;4.606;2023-02-13T11:47:41;102873.94;;;9.31;48.90
68822;BME280;55834;50.870;4.606;2023-02-13T11:53:04;102863.16;;;9.07;48.37
68822;BME280;55834;50.870;4.606;2023-02-13T11:55:38;102867.56;;;9.09;49.47
68822;BME280;55834;50.870;4.606;2023-02-13T11:58:27;102867.47;;;9.01;49.27
68822;BME280;55834;50.870;4.606;2023-02-13T12:04:13;102848.94;;;8.94;49.28
68822;BME280;55834;50.870;4.606;2023-02-13T12:06:41;102849.81;;;8.94;50.33
68822;BME280;55834;50.870;4.606;2023-02-13T12:09:21;102850.97;;;9.18;49.80
68822;BME280;55834;50.870;4.606;2023-02-13T12:11:57;102846.97;;;9.54;49.26
68822;BME280;55834;50.870;4.606;2023-02-13T12:14:32;102842.94;;;9.09;49.50
68822;BME280;55834;50.870;4.606;2023-02-13T12:17:03;102833.91;;;9.66;48.95
68822;BME280;55834;50.870;4.606;2023-02-13T12:19:43;102836.41;;;9.51;49.11
68822;BME280;55834;50.870;4.606;2023-02-13T12:27:56;102829.00;;;10.10;46.88
68822;BME280;55834;50.870;4.606;2023-02-13T12:43:49;102823.97;;;10.50;47.32
68822;BME280;55834;50.870;4.606;2023-02-13T12:46:30;102823.03;;;10.47;47.10
68822;BME280;55834;50.870;4.606;2023-02-13T13:26:31;102785.06;;;10.20;47.35
68822;BME280;55834;50.870;4.606;2023-02-13T13:29:04;102784.38;;;10.52;45.99
68822;BME280;55834;50.870;4.606;2023-02-13T13:31:34;102774.78;;;10.80;46.23
68822;BME280;55834;50.870;4.606;2023-02-13T13:34:01;102773.84;;;10.67;46.95
68822;BME280;55834;50.870;4.606;2023-02-13T13:36:43;102765.97;;;10.79;46.15
68822;BME280;55834;50.870;4.606;2023-02-13T13:49:53;102764.94;;;10.45;47.77
68822;BME280;55834;50.870;4.606;2023-02-13T13:52:32;102766.81;;;10.69;47.32
68822;BME280;55834;50.870;4.606;2023-02-13T13:54:59;102768.66;;;10.89;46.72
68822;BME280;55834;50.870;4.606;2023-02-13T13:57:58;102768.59;;;10.79;46.65
68822;BME280;55834;50.870;4.606;2023-02-13T14:00:28;102765.16;;;11.08;46.44
68822;BME280;55834;50.870;4.606;2023-02-13T14:05:28;102770.47;;;11.20;46.43
68822;BME280;55834;50.870;4.606;2023-02-13T14:07:58;102766.06;;;11.15;46.43
68822;BME280;55834;50.870;4.606;2023-02-13T14:18:19;102758.09;;;11.05;45.57
68822;BME280;55834;50.870;4.606;2023-02-13T14:26:18;102749.31;;;11.34;45.31
68822;BME280;55834;50.870;4.606;2023-02-13T14:34:07;102738.72;;;11.37;45.68
68822;BME280;55834;50.870;4.606;2023-02-13T14:36:38;102741.41;;;11.23;44.96
68822;BME280;55834;50.870;4.606;2023-02-13T14:39:28;102730.81;;;11.28;45.13
68822;BME280;55834;50.870;4.606;2023-02-13T14:44:32;102732.59;;;11.35;44.98
68822;BME280;55834;50.870;4.606;2023-02-13T14:47:03;102725.50;;;11.40;45.27
68822;BME280;55834;50.870;4.606;2023-02-13T14:49:32;102727.25;;;11.49;45.47
68822;BME280;55834;50.870;4.606;2023-02-13T14:52:05;102718.47;;;11.19;44.93
68822;BME280;55834;50.870;4.606;2023-02-13T14:57:09;102714.94;;;11.39;44.76
68822;BME280;55834;50.870;4.606;2023-02-13T14:59:42;102714.94;;;11.43;44.47
68822;BME280;55834;50.870;4.606;2023-02-13T15:04:40;102709.63;;;11.40;44.60
68822;BME280;55834;50.870;4.606;2023-02-13T15:07:16;102707.00;;;11.48;44.59
68822;BME280;55834;50.870;4.606;2023-02-13T15:09:47;102707.00;;;11.48;44.68
68822;BME280;55834;50.870;4.606;2023-02-13T15:12:28;102704.34;;;11.48;44.36
68822;BME280;55834;50.870;4.606;2023-02-13T15:14:54;102706.09;;;11.49;44.59
68822;BME280;55834;50.870;4.606;2023-02-13T15:17:28;102702.63;;;11.21;45.17
68822;BME280;55834;50.870;4.606;2023-02-13T15:20:02;102701.72;;;11.31;44.58
68822;BME280;55834;50.870;4.606;2023-02-13T15:24:57;102698.22;;;11.32;43.74
68822;BME280;55834;50.870;4.606;2023-02-13T15:27:43;102706.09;;;10.80;44.80
68822;BME280;55834;50.870;4.606;2023-02-13T15:33:21;102692.88;;;10.91;45.40
68822;BME280;55834;50.870;4.606;2023-02-13T15:35:56;102702.59;;;11.01;45.09
68822;BME280;55834;50.870;4.606;2023-02-13T15:38:35;102693.78;;;11.10;45.38
68822;BME280;55834;50.870;4.606;2023-02-13T15:41:03;102699.09;;;11.23;45.12
68822;BME280;55834;50.870;4.606;2023-02-13T15:43:32;102699.09;;;11.29;44.83
68822;BME280;55834;50.870;4.606;2023-02-13T15:46:05;102699.06;;;11.31;44.46
68822;BME280;55834;50.870;4.606;2023-02-13T15:48:34;102699.94;;;11.35;44.51
68822;BME280;55834;50.870;4.606;2023-02-13T15:51:00;102702.63;;;11.38;44.49
68822;BME280;55834;50.870;4.606;2023-02-13T15:53:27;102704.38;;;11.39;44.18
68822;BME280;55834;50.870;4.606;2023-02-13T15:55:56;102707.00;;;11.06;44.72
68822;BME280;55834;50.870;4.606;2023-02-13T15:58:25;102700.84;;;11.07;45.00
68822;BME280;55834;50.870;4.606;2023-02-13T16:00:52;102704.34;;;11.14;44.98
68822;BME280;55834;50.870;4.606;2023-02-13T16:03:18;102703.50;;;11.18;45.08
68822;BME280;55834;50.870;4.606;2023-02-13T16:05:45;102706.13;;;11.21;45.39
68822;BME280;55834;50.870;4.606;2023-02-13T16:08:36;102712.28;;;11.05;45.12
68822;BME280;55834;50.870;4.606;2023-02-13T16:16:31;102718.44;;;10.95;45.34
68822;BME280;55834;50.870;4.606;2023-02-13T16:18:57;102714.91;;;10.93;45.30